createdAt,value
2022-12-31T00:01:58.644Z,100794.91
2022-12-31T00:05:01.879Z,100793.16
2022-12-31T00:08:04.889Z,100796.00
2022-12-31T00:11:07.830Z,100803.97
2022-12-31T00:14:10.394Z,100800.22
2022-12-31T00:17:13.476Z,100802.00
2022-12-31T00:20:16.807Z,100794.72
2022-12-31T00:23:19.839Z,100789.06
2022-12-31T00:26:25.113Z,100795.06
2022-12-31T00:29:28.401Z,100803.44
2022-12-31T00:32:31.186Z,100807.38
2022-12-31T00:35:36.422Z,100817.69
2022-12-31T00:38:40.562Z,100809.06
2022-12-31T00:41:44.192Z,100800.44
2022-12-31T00:44:46.759Z,100813.22
2022-12-31T00:47:49.535Z,100812.69
2022-12-31T00:50:52.836Z,100820.41
2022-12-31T00:53:57.184Z,100818.94
2022-12-31T00:56:59.799Z,100830.47
2022-12-31T01:00:02.776Z,100828.09
2022-12-31T01:03:06.252Z,100831.34
2022-12-31T01:06:09.897Z,100828.75
2022-12-31T01:09:14.303Z,100823.78
2022-12-31T01:12:17.253Z,100833.63
2022-12-31T01:15:19.718Z,100835.41
2022-12-31T01:18:22.665Z,100839.09
2022-12-31T01:21:25.497Z,100833.75
2022-12-31T01:24:28.485Z,100834.34
2022-12-31T01:27:31.087Z,100836.09
2022-12-31T01:30:39.789Z,100822.91
2022-12-31T01:33:43.238Z,100823.66
2022-12-31T01:36:46.402Z,100827.00
2022-12-31T01:39:49.954Z,100829.06
2022-12-31T01:42:58.513Z,100833.34
2022-12-31T01:46:01.143Z,100831.88
2022-12-31T01:49:11.107Z,100829.22
2022-12-31T01:52:22.685Z,100839.31
2022-12-31T01:55:48.948Z,100836.25
2022-12-31T01:58:55.223Z,100839.31
2022-12-31T02:01:59.570Z,100831.03
2022-12-31T02:05:09.859Z,100842.47
2022-12-31T02:08:12.795Z,100842.72
2022-12-31T02:11:31.354Z,100841.16
2022-12-31T02:14:43.668Z,100838.88
2022-12-31T02:18:07.119Z,100842.41
2022-12-31T02:21:24.912Z,100839.19
2022-12-31T02:24:33.624Z,100833.31
2022-12-31T02:27:42.251Z,100835.94
2022-12-31T02:30:50.460Z,100837.91
2022-12-31T02:34:01.424Z,100846.47
2022-12-31T02:37:09.739Z,100828.88
2022-12-31T02:40:18.953Z,100832.16
2022-12-31T02:43:21.827Z,100833.63
2022-12-31T02:46:45.421Z,100842.56
2022-12-31T02:50:18.651Z,100853.66
2022-12-31T02:53:26.476Z,100854.06
2022-12-31T02:56:39.409Z,100854.44
2022-12-31T03:00:35.192Z,100844.03
2022-12-31T03:03:39.356Z,100848.81
2022-12-31T03:06:43.007Z,100835.38
2022-12-31T03:09:45.844Z,100841.00
2022-12-31T03:12:49.090Z,100824.13
2022-12-31T03:15:52.031Z,100810.13
2022-12-31T03:19:13.111Z,100808.47
2022-12-31T03:22:27.709Z,100813.37
2022-12-31T03:25:33.413Z,100827.37
2022-12-31T03:28:38.138Z,100836.91
2022-12-31T03:31:41.109Z,100820.97
2022-12-31T03:34:44.246Z,100811.56
2022-12-31T03:37:48.199Z,100844.03
2022-12-31T03:40:54.050Z,100833.31
2022-12-31T03:43:56.563Z,100832.66
2022-12-31T03:46:59.369Z,100829.91
2022-12-31T03:50:02.168Z,100832.03
2022-12-31T03:53:05.650Z,100819.44
2022-12-31T03:56:08.261Z,100820.22
2022-12-31T03:59:11.400Z,100818.00
2022-12-31T04:02:14.302Z,100818.78
2022-12-31T04:05:18.606Z,100816.56
2022-12-31T04:08:24.556Z,100824.44
2022-12-31T04:11:27.492Z,100836.03
2022-12-31T04:14:30.259Z,100833.16
2022-12-31T04:17:33.439Z,100833.50
2022-12-31T04:20:36.388Z,100824.19
2022-12-31T04:23:39.768Z,100827.84
2022-12-31T04:26:44.060Z,100837.50
2022-12-31T04:29:47.219Z,100842.31
2022-12-31T04:32:49.994Z,100835.31
2022-12-31T04:35:53.095Z,100832.09
2022-12-31T04:38:56.538Z,100843.87
2022-12-31T04:41:59.357Z,100851.69
2022-12-31T04:45:02.518Z,100846.94
2022-12-31T04:48:06.388Z,100851.31
2022-12-31T04:51:09.072Z,100873.41
2022-12-31T04:54:11.957Z,100868.03
2022-12-31T04:57:14.641Z,100871.78
2022-12-31T05:00:17.812Z,100873.78
2022-12-31T05:03:22.016Z,100870.56
2022-12-31T05:06:25.261Z,100879.56
2022-12-31T05:09:28.438Z,100886.03
2022-12-31T05:12:31.652Z,100888.81
2022-12-31T05:15:35.028Z,100888.50
2022-12-31T05:18:38.257Z,100895.06
2022-12-31T05:21:40.910Z,100898.81
2022-12-31T05:24:43.736Z,100886.62
2022-12-31T05:27:46.541Z,100885.66
2022-12-31T05:30:50.832Z,100909.53
2022-12-31T05:33:53.899Z,100909.50
2022-12-31T05:36:56.671Z,100897.41
2022-12-31T05:39:59.674Z,100909.81
2022-12-31T05:43:02.529Z,100913.25
2022-12-31T05:46:05.496Z,100921.84
2022-12-31T05:49:08.360Z,100935.97
2022-12-31T05:52:11.249Z,100939.34
2022-12-31T05:55:14.303Z,100924.47
2022-12-31T05:58:18.149Z,100929.44
2022-12-31T06:01:21.516Z,100932.34
2022-12-31T06:04:25.244Z,100928.41
2022-12-31T06:07:28.734Z,100928.75
2022-12-31T06:10:31.828Z,100936.72
2022-12-31T06:13:35.147Z,100931.34
2022-12-31T06:16:40.185Z,100932.84
2022-12-31T06:19:43.008Z,100927.16
2022-12-31T06:22:45.824Z,100943.28
2022-12-31T06:25:48.573Z,100932.44
2022-12-31T06:28:51.540Z,100932.44
2022-12-31T06:31:54.156Z,100942.81
2022-12-31T06:34:57.193Z,100938.06
2022-12-31T06:38:00.462Z,100948.28
2022-12-31T06:41:04.923Z,100948.25
2022-12-31T06:44:07.566Z,100959.22
2022-12-31T06:47:10.550Z,100959.44
2022-12-31T06:50:13.271Z,100958.91
2022-12-31T06:53:16.468Z,100972.63
2022-12-31T06:56:33.055Z,100978.72
2022-12-31T06:59:36.992Z,100968.00
2022-12-31T07:02:50.305Z,100967.94
2022-12-31T07:06:01.887Z,100962.03
2022-12-31T07:09:26.526Z,100962.06
2022-12-31T07:13:06.673Z,100966.41
2022-12-31T07:16:33.600Z,100970.09
2022-12-31T07:19:47.537Z,100979.13
2022-12-31T07:22:52.785Z,100981.91
2022-12-31T07:26:06.718Z,100993.56
2022-12-31T07:29:35.588Z,100987.38
2022-12-31T07:32:59.484Z,100997.56
2022-12-31T07:36:29.851Z,100998.53
2022-12-31T07:39:46.662Z,100996.28
2022-12-31T07:42:55.281Z,100993.75
2022-12-31T07:46:04.597Z,100986.03
2022-12-31T07:49:14.338Z,100996.25
2022-12-31T07:52:17.735Z,101003.66
2022-12-31T07:55:20.303Z,101004.19
2022-12-31T07:58:33.161Z,101008.38
2022-12-31T08:01:48.415Z,101010.34
2022-12-31T08:05:11.829Z,101015.12
2022-12-31T08:08:23.815Z,101005.31
2022-12-31T08:11:38.046Z,101033.19
2022-12-31T08:14:47.082Z,101030.31
2022-12-31T08:17:51.393Z,101015.66
2022-12-31T08:21:15.683Z,101023.59
2022-12-31T08:24:30.781Z,101012.87
2022-12-31T08:27:45.450Z,101010.66
2022-12-31T08:31:10.608Z,101020.91
2022-12-31T08:34:20.899Z,101051.53
2022-12-31T08:37:39.882Z,101057.06
2022-12-31T08:41:10.062Z,101067.16
2022-12-31T08:44:32.372Z,101072.22
2022-12-31T08:47:43.896Z,101074.66
2022-12-31T08:50:47.824Z,101090.56
2022-12-31T08:53:51.781Z,101079.78
2022-12-31T08:57:06.718Z,101086.75
2022-12-31T09:00:15.182Z,101079.00
2022-12-31T09:03:42.185Z,101082.47
2022-12-31T09:07:03.124Z,101090.13
2022-12-31T09:10:29.409Z,101089.41
2022-12-31T09:14:06.111Z,101086.53
2022-12-31T09:17:41.506Z,101077.34
2022-12-31T09:20:45.558Z,101095.38
2022-12-31T09:23:48.625Z,101088.59
2022-12-31T09:27:15.960Z,101079.81
2022-12-31T09:30:20.250Z,101077.97
2022-12-31T09:33:32.482Z,101079.28
2022-12-31T09:36:45.957Z,101077.84
2022-12-31T09:39:49.539Z,101069.25
2022-12-31T09:43:12.566Z,101069.28
2022-12-31T09:46:18.189Z,101062.50
2022-12-31T09:49:43.012Z,101065.91
2022-12-31T09:52:57.673Z,101059.84
2022-12-31T09:56:09.671Z,101049.91
2022-12-31T09:59:35.288Z,101041.03
2022-12-31T10:03:10.863Z,101018.06
2022-12-31T10:06:37.697Z,101019.03
2022-12-31T10:10:13.265Z,101040.22
2022-12-31T10:13:24.943Z,101033.13
2022-12-31T10:16:52.064Z,101026.63
2022-12-31T10:20:26.268Z,101017.00
2022-12-31T10:23:31.942Z,101021.31
2022-12-31T10:27:02.319Z,101022.72
2022-12-31T10:30:18.945Z,101013.94
2022-12-31T10:33:40.266Z,101039.88
2022-12-31T10:36:53.018Z,101029.38
2022-12-31T10:40:24.745Z,101033.84
2022-12-31T10:44:01.632Z,101022.38
2022-12-31T10:47:33.277Z,101033.91
2022-12-31T10:50:55.272Z,101052.75
2022-12-31T10:54:48.756Z,101045.06
2022-12-31T10:58:30.660Z,101042.16
2022-12-31T11:01:49.513Z,101015.78
2022-12-31T11:05:23.151Z,101013.78
2022-12-31T11:08:51.552Z,101043.09
2022-12-31T11:12:17.347Z,101017.44
2022-12-31T11:15:58.988Z,101041.28
2022-12-31T11:19:26.753Z,101018.00
2022-12-31T11:22:56.835Z,101022.19
2022-12-31T11:26:17.656Z,101007.41
2022-12-31T11:29:33.190Z,100991.38
2022-12-31T11:32:38.790Z,101010.78
2022-12-31T11:36:20.409Z,101027.00
2022-12-31T11:39:57.388Z,101029.97
2022-12-31T11:43:27.968Z,101017.88
2022-12-31T11:46:52.064Z,101010.13
2022-12-31T11:50:26.530Z,101015.66
2022-12-31T11:53:57.709Z,101009.66
2022-12-31T11:57:34.881Z,101005.84
2022-12-31T12:00:39.669Z,101009.66
2022-12-31T12:03:43.842Z,100997.13
2022-12-31T12:06:46.538Z,100995.38
2022-12-31T12:09:51.583Z,100999.56
2022-12-31T12:12:56.531Z,101008.12
2022-12-31T12:16:03.318Z,101018.75
2022-12-31T12:19:16.606Z,101023.94
2022-12-31T12:22:26.482Z,101023.72
2022-12-31T12:25:42.148Z,101029.53
2022-12-31T12:28:46.164Z,101029.16
2022-12-31T12:32:00.921Z,101018.38
2022-12-31T12:35:20.028Z,101035.44
2022-12-31T12:38:23.834Z,101021.91
2022-12-31T12:41:27.731Z,101025.91
2022-12-31T12:44:31.623Z,101039.97
2022-12-31T12:47:35.252Z,101035.50
2022-12-31T12:50:47.230Z,101026.69
2022-12-31T12:53:54.728Z,101020.75
2022-12-31T12:57:15.425Z,101016.44
2022-12-31T13:00:22.538Z,100997.66
2022-12-31T13:04:23.725Z,101008.00
2022-12-31T13:07:52.939Z,100998.34
2022-12-31T13:10:58.507Z,100999.50
2022-12-31T13:14:23.188Z,101002.38
2022-12-31T13:17:55.040Z,101001.47
2022-12-31T13:21:21.377Z,101002.28
2022-12-31T13:25:02.582Z,101022.84
2022-12-31T13:28:11.792Z,101027.03
2022-12-31T13:31:22.846Z,101027.59
2022-12-31T13:34:33.788Z,101021.69
2022-12-31T13:37:42.005Z,101022.84
2022-12-31T13:40:51.830Z,101021.53
2022-12-31T13:44:31.235Z,101018.25
2022-12-31T13:47:40.855Z,101034.13
2022-12-31T13:50:52.437Z,101036.56
2022-12-31T13:54:28.584Z,101031.13
2022-12-31T13:57:57.381Z,101013.41
2022-12-31T14:01:33.429Z,101004.00
2022-12-31T14:04:43.438Z,101008.88
2022-12-31T14:08:01.879Z,101021.47
2022-12-31T14:11:11.028Z,101029.03
2022-12-31T14:14:49.957Z,101030.72
2022-12-31T14:18:51.254Z,101044.78
2022-12-31T14:21:58.388Z,101055.84
2022-12-31T14:25:04.022Z,101038.59
2022-12-31T14:28:18.765Z,101043.94
2022-12-31T14:31:55.922Z,101041.56
2022-12-31T14:35:17.121Z,101040.91
2022-12-31T14:38:54.068Z,101039.78
2022-12-31T14:42:29.167Z,101045.72
2022-12-31T14:45:47.581Z,101041.25
2022-12-31T14:49:02.145Z,101047.97
2022-12-31T14:52:31.675Z,101053.91
2022-12-31T14:55:40.705Z,101042.69
2022-12-31T14:58:58.424Z,101028.19
2022-12-31T15:02:01.389Z,101029.50
2022-12-31T15:05:32.445Z,101025.09
2022-12-31T15:08:34.997Z,101026.66
2022-12-31T15:11:46.862Z,101024.38
2022-12-31T15:15:16.537Z,101026.56
2022-12-31T15:18:19.766Z,101014.34
2022-12-31T15:21:58.199Z,101019.63
2022-12-31T15:25:02.099Z,101025.09
2022-12-31T15:28:25.787Z,101025.75
2022-12-31T15:31:29.978Z,101034.97
2022-12-31T15:34:35.361Z,101047.66
2022-12-31T15:37:38.402Z,101058.78
2022-12-31T15:40:46.902Z,101070.22
2022-12-31T15:43:58.476Z,101061.09
2022-12-31T15:47:10.135Z,101049.41
2022-12-31T15:50:21.688Z,101045.25
2022-12-31T15:53:35.989Z,101032.25
2022-12-31T15:56:46.414Z,101048.75
2022-12-31T15:59:59.126Z,101063.66
2022-12-31T16:03:02.799Z,101066.53
2022-12-31T16:06:14.680Z,101062.72
2022-12-31T16:09:34.320Z,101043.87
2022-12-31T16:12:44.679Z,101048.75
2022-12-31T16:15:57.064Z,101047.25
2022-12-31T16:19:00.571Z,101046.00
2022-12-31T16:22:15.478Z,101037.69
2022-12-31T16:25:30.548Z,101052.72
2022-12-31T16:28:48.945Z,101052.19
2022-12-31T16:31:54.086Z,101052.34
2022-12-31T16:34:56.798Z,101052.34
2022-12-31T16:38:15.443Z,101058.06
2022-12-31T16:41:21.199Z,101057.16
2022-12-31T16:44:29.029Z,101049.97
2022-12-31T16:47:35.570Z,101045.31
2022-12-31T16:50:38.666Z,101043.84
2022-12-31T16:53:42.134Z,101048.09
2022-12-31T16:56:45.486Z,101052.12
2022-12-31T16:59:54.618Z,101066.88
2022-12-31T17:03:17.897Z,101070.63
2022-12-31T17:06:22.574Z,101075.06
2022-12-31T17:09:37.842Z,101077.06
2022-12-31T17:13:17.445Z,101078.28
2022-12-31T17:16:06.917Z,101062.72
2022-12-31T17:19:40.067Z,101055.34
2022-12-31T17:22:47.034Z,101065.16
2022-12-31T17:25:57.575Z,101076.91
2022-12-31T17:29:06.186Z,101067.69
2022-12-31T17:32:18.241Z,101074.06
2022-12-31T17:35:36.913Z,101069.66
2022-12-31T17:38:39.684Z,101075.91
2022-12-31T17:41:46.120Z,101074.91
2022-12-31T17:44:48.962Z,101079.03
2022-12-31T17:47:53.989Z,101082.69
2022-12-31T17:50:59.661Z,101095.09
2022-12-31T17:54:02.639Z,101099.13
2022-12-31T17:57:05.987Z,101097.53
2022-12-31T18:00:17.424Z,101095.56
2022-12-31T18:03:20.762Z,101097.00
2022-12-31T18:06:23.417Z,101094.87
2022-12-31T18:09:26.304Z,101107.19
2022-12-31T18:12:30.255Z,101103.03
2022-12-31T18:15:33.463Z,101100.03
2022-12-31T18:18:39.929Z,101096.09
2022-12-31T18:21:44.864Z,101087.13
2022-12-31T18:24:52.365Z,101087.84
2022-12-31T18:27:55.355Z,101083.44
2022-12-31T18:30:58.690Z,101078.72
2022-12-31T18:34:01.638Z,101080.50
2022-12-31T18:37:15.191Z,101076.03
2022-12-31T18:40:25.603Z,101085.16
2022-12-31T18:43:28.277Z,101090.06
2022-12-31T18:46:31.168Z,101092.25
2022-12-31T18:49:34.106Z,101088.69
2022-12-31T18:52:37.492Z,101096.56
2022-12-31T18:55:44.405Z,101101.69
2022-12-31T18:58:48.012Z,101101.81
2022-12-31T19:01:50.954Z,101114.31
2022-12-31T19:04:53.874Z,101112.34
2022-12-31T19:07:57.052Z,101102.31
2022-12-31T19:11:01.868Z,101106.78
2022-12-31T19:14:26.661Z,101108.63
2022-12-31T19:17:29.793Z,101106.62
2022-12-31T19:20:33.747Z,101103.06
2022-12-31T19:23:36.615Z,101105.72
2022-12-31T19:26:43.430Z,101104.00
2022-12-31T19:29:46.707Z,101109.75
2022-12-31T19:32:54.351Z,101100.16
2022-12-31T19:35:59.319Z,101110.03
2022-12-31T19:39:03.912Z,101106.94
2022-12-31T19:42:15.053Z,101106.31
2022-12-31T19:45:25.718Z,101111.37
2022-12-31T19:48:32.564Z,101099.66
2022-12-31T19:51:35.509Z,101104.91
2022-12-31T19:54:38.474Z,101107.53
2022-12-31T19:57:42.241Z,101102.97
2022-12-31T20:00:53.932Z,101090.16
2022-12-31T20:04:00.301Z,101100.44
2022-12-31T20:07:02.996Z,101092.94
2022-12-31T20:10:07.238Z,101089.81
2022-12-31T20:13:10.007Z,101087.94
2022-12-31T20:16:15.882Z,101087.19
2022-12-31T20:19:18.927Z,101089.28
2022-12-31T20:22:21.940Z,101093.72
2022-12-31T20:25:25.703Z,101096.12
2022-12-31T20:28:28.718Z,101094.66
2022-12-31T20:31:31.475Z,101088.72
2022-12-31T20:34:37.263Z,101091.34
2022-12-31T20:37:39.899Z,101101.13
2022-12-31T20:40:46.644Z,101098.28
2022-12-31T20:43:50.847Z,101091.25
2022-12-31T20:46:53.898Z,101101.00
2022-12-31T20:50:12.623Z,101101.28
2022-12-31T20:53:15.936Z,101094.78
2022-12-31T20:56:18.949Z,101094.37
2022-12-31T20:59:21.929Z,101093.38
2022-12-31T21:02:40.396Z,101094.44
2022-12-31T21:05:50.360Z,101091.44
2022-12-31T21:08:54.939Z,101090.66
2022-12-31T21:12:17.032Z,101084.63
2022-12-31T21:15:21.792Z,101084.50
2022-12-31T21:18:24.720Z,101071.84
2022-12-31T21:21:27.421Z,101077.53
2022-12-31T21:24:30.467Z,101076.63
2022-12-31T21:27:36.092Z,101084.34
2022-12-31T21:30:40.042Z,101094.22
2022-12-31T21:33:47.438Z,101092.50
2022-12-31T21:36:50.287Z,101100.47
2022-12-31T21:39:52.721Z,101113.53
2022-12-31T21:42:58.363Z,101104.31
2022-12-31T21:46:03.913Z,101106.16
2022-12-31T21:49:06.774Z,101116.88
2022-12-31T21:52:28.447Z,101114.25
2022-12-31T21:55:49.656Z,101116.75
2022-12-31T21:59:14.689Z,101117.72
2022-12-31T22:02:37.847Z,101123.16
2022-12-31T22:05:49.960Z,101129.81
2022-12-31T22:08:55.138Z,101137.31
2022-12-31T22:11:58.028Z,101139.72
2022-12-31T22:15:15.631Z,101144.97
2022-12-31T22:18:19.171Z,101133.22
2022-12-31T22:21:24.432Z,101136.16
2022-12-31T22:24:27.268Z,101132.28
2022-12-31T22:27:30.188Z,101133.22
2022-12-31T22:30:35.031Z,101142.84
2022-12-31T22:33:37.914Z,101142.03
2022-12-31T22:36:41.011Z,101137.00
2022-12-31T22:39:45.153Z,101132.03
2022-12-31T22:42:48.128Z,101123.00
2022-12-31T22:45:50.649Z,101116.44
2022-12-31T22:48:58.423Z,101117.03
2022-12-31T22:52:05.598Z,101114.50
2022-12-31T22:55:11.602Z,101110.47
2022-12-31T22:58:14.297Z,101109.66
2022-12-31T23:01:20.419Z,101100.94
2022-12-31T23:04:23.399Z,101099.53
2022-12-31T23:07:29.227Z,101093.06
2022-12-31T23:10:51.204Z,101099.19
2022-12-31T23:14:13.002Z,101093.53
2022-12-31T23:17:37.408Z,101096.28
2022-12-31T23:20:58.948Z,101091.31
2022-12-31T23:24:04.592Z,101097.41
2022-12-31T23:27:11.125Z,101096.50
2022-12-31T23:30:13.775Z,101101.34
2022-12-31T23:33:19.835Z,101099.19
2022-12-31T23:36:24.364Z,101104.00
2022-12-31T23:39:27.169Z,101114.28
2022-12-31T23:42:29.970Z,101117.72
2022-12-31T23:45:34.143Z,101113.06
2022-12-31T23:48:36.693Z,101112.47
2022-12-31T23:51:40.353Z,101113.62
2022-12-31T23:54:42.861Z,101122.75
2022-12-31T23:57:45.976Z,101113.94
